Terminal Aerodrome Forecast
Issued by NWS Pueblo, CO

Home | Current Version | Previous Version | Text Only | Print | Product List | Glossary On
Versions: 1 2 3 4 5 6 7 8 9 10 11 12 13 14 15 16 17 18 19 20 21 22 23 24 25 26 27 28 29 30 31 32 33 34 35 36 37 38
000
FTUS45 KPUB 301732
TAFALS
TAF
KALS 301732Z 3018/3118 VRB05KT P6SM SCT080
     FM302000 10009KT P6SM SCT060 BKN100
     FM302200 09012KT P6SM VCTS SCT050CB BKN080
     FM310200 12007KT P6SM BKN040=

USA.gov is the U.S. government's official web portal to all federal, state and local government web resources and services.